Portada
METAR-TAF:

METAR-TAF

Aeropuertos :

Aeropuerto de Lüderitz

Lüderitz, Namibia

latitud: 26-41S, longitud: 015-15E, altitud: 130 m

Observación

El informe se hizo hace 35 minutos, a las 21:00 UTC
Viento 10 kt del sur-sureste
Temperatura 13°C
Humedad 58%
Presión 1021 hPa

METAR: FYLZ 262100Z AUTO 16010KT //// // ////// 13/05 Q1021

Hora: 23:35 (21:35 UTC)

Pronóstico

El informe se hizo hace 1 hora y 35 minutos, a las 20:00 UTC
Pronóstico válido del 26 a las 21 UTC al 27 a las 06 UTC
Viento 13 kt del sur-sureste
Visibilidad 10 km o más
sin nubes por debajo de 1500 m y sin presencia de cumulonimbus.

TAF: FYLZ 262000Z 2621/2706 15013KT CAVOK

Observaciones y pronósticos meteorológicos de más de 4000 aeropuertos (mensajes METAR y TAF).

Los puntos amarillos y rojos representan las estaciones disponibles.

Ponga el ratón en el punto deseado para ver el nombre de la estación.

Haga clic para ver las observaciones y los pronósticos meteorológicos.

Para cambiar el mapa : haga clic en los botones verdes con una cruz de color negro para hacer un zoom, en el botón verde con un guión para alejar o en las flechas verdes para mapas adyacentes.


METAR-TAF: